sensor_id;sensor_type;location;lat;lon;timestamp;P1;durP1;ratioP1;P2;durP2;ratioP2
16967;SDS011;64862;54.398;10.126;2022-11-25T00:00:20;55.85;;;20.08;;
16967;SDS011;64862;54.398;10.126;2022-11-25T00:02:48;29.13;;;19.15;;
16967;SDS011;64862;54.398;10.126;2022-11-25T00:05:15;34.13;;;19.88;;
16967;SDS011;64862;54.398;10.126;2022-11-25T00:07:44;42.55;;;20.08;;
16967;SDS011;64862;54.398;10.126;2022-11-25T00:10:11;46.45;;;20.23;;
16967;SDS011;64862;54.398;10.126;2022-11-25T00:12:39;39.47;;;20.25;;
16967;SDS011;64862;54.398;10.126;2022-11-25T00:15:06;54.53;;;20.33;;
16967;SDS011;64862;54.398;10.126;2022-11-25T00:17:34;36.40;;;19.25;;
16967;SDS011;64862;54.398;10.126;2022-11-25T00:20:02;39.80;;;18.80;;
16967;SDS011;64862;54.398;10.126;2022-11-25T00:22:30;35.10;;;17.85;;
16967;SDS011;64862;54.398;10.126;2022-11-25T00:24:58;34.85;;;18.33;;
16967;SDS011;64862;54.398;10.126;2022-11-25T00:27:28;43.33;;;18.35;;
16967;SDS011;64862;54.398;10.126;2022-11-25T00:29:58;75.43;;;18.63;;
16967;SDS011;64862;54.398;10.126;2022-11-25T00:32:25;47.00;;;18.33;;
16967;SDS011;64862;54.398;10.126;2022-11-25T00:34:52;48.80;;;17.92;;
16967;SDS011;64862;54.398;10.126;2022-11-25T00:37:19;33.92;;;17.48;;
16967;SDS011;64862;54.398;10.126;2022-11-25T00:39:46;37.85;;;17.58;;
16967;SDS011;64862;54.398;10.126;2022-11-25T00:42:17;66.45;;;18.33;;
16967;SDS011;64862;54.398;10.126;2022-11-25T00:45:02;60.65;;;18.27;;
16967;SDS011;64862;54.398;10.126;2022-11-25T00:47:32;48.67;;;19.58;;
16967;SDS011;64862;54.398;10.126;2022-11-25T00:49:59;53.13;;;19.75;;
16967;SDS011;64862;54.398;10.126;2022-11-25T00:52:28;35.95;;;18.95;;
16967;SDS011;64862;54.398;10.126;2022-11-25T00:54:55;53.17;;;20.05;;
16967;SDS011;64862;54.398;10.126;2022-11-25T00:57:24;64.65;;;20.67;;
16967;SDS011;64862;54.398;10.126;2022-11-25T00:59:51;56.65;;;20.98;;
16967;SDS011;64862;54.398;10.126;2022-11-25T01:02:19;39.08;;;21.42;;
16967;SDS011;64862;54.398;10.126;2022-11-25T01:04:48;40.13;;;20.98;;
16967;SDS011;64862;54.398;10.126;2022-11-25T01:07:15;50.53;;;22.42;;
16967;SDS011;64862;54.398;10.126;2022-11-25T01:09:43;60.55;;;22.38;;
16967;SDS011;64862;54.398;10.126;2022-11-25T01:12:11;46.13;;;21.90;;
16967;SDS011;64862;54.398;10.126;2022-11-25T01:14:40;37.92;;;22.48;;
16967;SDS011;64862;54.398;10.126;2022-11-25T01:17:07;60.72;;;21.98;;
16967;SDS011;64862;54.398;10.126;2022-11-25T01:19:34;44.78;;;22.90;;
16967;SDS011;64862;54.398;10.126;2022-11-25T01:22:04;41.13;;;21.30;;
16967;SDS011;64862;54.398;10.126;2022-11-25T01:24:33;42.63;;;20.98;;
16967;SDS011;64862;54.398;10.126;2022-11-25T01:27:00;69.70;;;21.17;;
16967;SDS011;64862;54.398;10.126;2022-11-25T01:29:28;46.90;;;21.70;;
16967;SDS011;64862;54.398;10.126;2022-11-25T01:31:57;68.72;;;22.17;;
16967;SDS011;64862;54.398;10.126;2022-11-25T01:34:24;66.18;;;21.50;;
16967;SDS011;64862;54.398;10.126;2022-11-25T01:36:56;69.63;;;22.23;;
16967;SDS011;64862;54.398;10.126;2022-11-25T01:39:23;49.95;;;20.80;;
16967;SDS011;64862;54.398;10.126;2022-11-25T01:41:51;48.08;;;20.63;;
16967;SDS011;64862;54.398;10.126;2022-11-25T01:44:20;43.80;;;21.45;;
16967;SDS011;64862;54.398;10.126;2022-11-25T01:46:51;50.50;;;20.23;;
16967;SDS011;64862;54.398;10.126;2022-11-25T01:49:35;51.60;;;21.20;;
16967;SDS011;64862;54.398;10.126;2022-11-25T01:52:08;81.32;;;19.73;;
16967;SDS011;64862;54.398;10.126;2022-11-25T01:54:41;42.50;;;18.75;;
16967;SDS011;64862;54.398;10.126;2022-11-25T01:57:13;36.95;;;19.45;;
16967;SDS011;64862;54.398;10.126;2022-11-25T01:59:47;36.50;;;19.45;;
16967;SDS011;64862;54.398;10.126;2022-11-25T02:02:18;47.33;;;20.02;;
16967;SDS011;64862;54.398;10.126;2022-11-25T02:04:47;39.35;;;19.10;;
16967;SDS011;64862;54.398;10.126;2022-11-25T02:07:16;44.97;;;19.50;;
16967;SDS011;64862;54.398;10.126;2022-11-25T02:09:49;48.08;;;19.25;;
16967;SDS011;64862;54.398;10.126;2022-11-25T02:12:18;42.03;;;18.80;;
16967;SDS011;64862;54.398;10.126;2022-11-25T02:14:47;32.38;;;18.25;;
16967;SDS011;64862;54.398;10.126;2022-11-25T02:17:18;41.42;;;18.00;;
16967;SDS011;64862;54.398;10.126;2022-11-25T02:19:50;38.78;;;18.73;;
16967;SDS011;64862;54.398;10.126;2022-11-25T02:22:29;28.88;;;17.52;;
16967;SDS011;64862;54.398;10.126;2022-11-25T02:25:10;47.08;;;18.75;;
16967;SDS011;64862;54.398;10.126;2022-11-25T02:27:40;39.33;;;18.05;;
16967;SDS011;64862;54.398;10.126;2022-11-25T02:30:09;32.05;;;18.45;;
16967;SDS011;64862;54.398;10.126;2022-11-25T02:32:41;36.10;;;18.20;;
16967;SDS011;64862;54.398;10.126;2022-11-25T02:38:03;37.55;;;18.35;;
16967;SDS011;64862;54.398;10.126;2022-11-25T02:40:37;34.70;;;18.60;;
16967;SDS011;64862;54.398;10.126;2022-11-25T02:43:09;33.15;;;18.63;;
16967;SDS011;64862;54.398;10.126;2022-11-25T02:45:49;35.00;;;19.20;;
16967;SDS011;64862;54.398;10.126;2022-11-25T02:48:20;34.55;;;18.58;;
16967;SDS011;64862;54.398;10.126;2022-11-25T02:50:47;36.15;;;19.35;;
16967;SDS011;64862;54.398;10.126;2022-11-25T02:53:15;35.60;;;18.88;;
16967;SDS011;64862;54.398;10.126;2022-11-25T02:55:47;38.65;;;19.48;;
16967;SDS011;64862;54.398;10.126;2022-11-25T02:58:15;39.72;;;19.90;;
16967;SDS011;64862;54.398;10.126;2022-11-25T03:00:45;35.72;;;19.63;;
16967;SDS011;64862;54.398;10.126;2022-11-25T03:03:14;34.55;;;18.63;;
16967;SDS011;64862;54.398;10.126;2022-11-25T03:05:41;34.13;;;18.63;;
16967;SDS011;64862;54.398;10.126;2022-11-25T03:08:09;35.03;;;19.23;;
16967;SDS011;64862;54.398;10.126;2022-11-25T03:10:39;29.10;;;17.58;;
16967;SDS011;64862;54.398;10.126;2022-11-25T03:13:08;28.27;;;17.98;;
16967;SDS011;64862;54.398;10.126;2022-11-25T03:15:38;32.90;;;18.30;;
16967;SDS011;64862;54.398;10.126;2022-11-25T03:18:06;30.77;;;17.60;;
16967;SDS011;64862;54.398;10.126;2022-11-25T03:20:34;30.25;;;17.05;;
16967;SDS011;64862;54.398;10.126;2022-11-25T03:23:02;37.85;;;18.27;;
16967;SDS011;64862;54.398;10.126;2022-11-25T03:25:31;32.20;;;17.73;;
16967;SDS011;64862;54.398;10.126;2022-11-25T03:28:01;33.17;;;18.52;;
16967;SDS011;64862;54.398;10.126;2022-11-25T03:30:31;34.42;;;17.95;;
16967;SDS011;64862;54.398;10.126;2022-11-25T03:33:00;32.90;;;18.75;;
16967;SDS011;64862;54.398;10.126;2022-11-25T03:35:29;29.88;;;18.10;;
16967;SDS011;64862;54.398;10.126;2022-11-25T03:37:57;32.22;;;17.52;;
16967;SDS011;64862;54.398;10.126;2022-11-25T03:40:24;28.80;;;17.33;;
16967;SDS011;64862;54.398;10.126;2022-11-25T03:42:52;32.00;;;17.35;;
16967;SDS011;64862;54.398;10.126;2022-11-25T03:45:19;30.02;;;17.27;;
16967;SDS011;64862;54.398;10.126;2022-11-25T03:47:51;30.27;;;17.98;;
16967;SDS011;64862;54.398;10.126;2022-11-25T03:50:18;32.35;;;17.50;;
16967;SDS011;64862;54.398;10.126;2022-11-25T03:52:46;32.88;;;18.38;;
16967;SDS011;64862;54.398;10.126;2022-11-25T03:55:18;31.90;;;17.40;;
16967;SDS011;64862;54.398;10.126;2022-11-25T03:57:45;29.58;;;17.73;;
16967;SDS011;64862;54.398;10.126;2022-11-25T04:00:13;32.88;;;18.92;;
16967;SDS011;64862;54.398;10.126;2022-11-25T04:02:43;33.58;;;18.52;;
16967;SDS011;64862;54.398;10.126;2022-11-25T04:05:14;29.95;;;18.02;;
16967;SDS011;64862;54.398;10.126;2022-11-25T04:07:42;36.63;;;19.58;;
16967;SDS011;64862;54.398;10.126;2022-11-25T04:10:10;31.73;;;18.73;;
16967;SDS011;64862;54.398;10.126;2022-11-25T04:12:38;31.42;;;18.60;;
16967;SDS011;64862;54.398;10.126;2022-11-25T04:15:36;32.28;;;18.98;;
16967;SDS011;64862;54.398;10.126;2022-11-25T04:18:04;31.67;;;18.90;;
16967;SDS011;64862;54.398;10.126;2022-11-25T04:20:34;34.42;;;19.35;;
16967;SDS011;64862;54.398;10.126;2022-11-25T04:23:03;31.00;;;18.65;;
16967;SDS011;64862;54.398;10.126;2022-11-25T04:25:34;34.58;;;19.63;;
16967;SDS011;64862;54.398;10.126;2022-11-25T04:28:10;31.63;;;18.10;;
16967;SDS011;64862;54.398;10.126;2022-11-25T04:30:37;30.95;;;18.85;;
16967;SDS011;64862;54.398;10.126;2022-11-25T04:33:05;31.30;;;18.50;;
16967;SDS011;64862;54.398;10.126;2022-11-25T04:35:35;34.45;;;18.83;;
16967;SDS011;64862;54.398;10.126;2022-11-25T04:38:02;35.25;;;18.83;;
16967;SDS011;64862;54.398;10.126;2022-11-25T04:40:32;35.25;;;18.48;;
16967;SDS011;64862;54.398;10.126;2022-11-25T04:43:11;33.80;;;17.95;;
16967;SDS011;64862;54.398;10.126;2022-11-25T04:45:46;34.25;;;19.70;;
16967;SDS011;64862;54.398;10.126;2022-11-25T04:48:13;36.65;;;19.90;;
16967;SDS011;64862;54.398;10.126;2022-11-25T04:50:42;37.88;;;19.40;;
16967;SDS011;64862;54.398;10.126;2022-11-25T04:53:12;33.75;;;20.58;;
16967;SDS011;64862;54.398;10.126;2022-11-25T04:55:39;35.80;;;20.00;;
16967;SDS011;64862;54.398;10.126;2022-11-25T04:58:12;36.38;;;19.85;;
16967;SDS011;64862;54.398;10.126;2022-11-25T05:00:59;37.75;;;20.30;;
16967;SDS011;64862;54.398;10.126;2022-11-25T05:03:26;37.67;;;20.73;;
16967;SDS011;64862;54.398;10.126;2022-11-25T05:05:55;36.88;;;19.98;;
16967;SDS011;64862;54.398;10.126;2022-11-25T05:08:23;36.35;;;19.10;;
16967;SDS011;64862;54.398;10.126;2022-11-25T05:10:50;36.28;;;19.85;;
16967;SDS011;64862;54.398;10.126;2022-11-25T05:13:18;36.53;;;19.42;;
16967;SDS011;64862;54.398;10.126;2022-11-25T05:15:45;35.38;;;19.42;;
16967;SDS011;64862;54.398;10.126;2022-11-25T05:18:14;42.60;;;20.80;;
16967;SDS011;64862;54.398;10.126;2022-11-25T05:20:44;35.13;;;19.85;;
16967;SDS011;64862;54.398;10.126;2022-11-25T05:23:17;41.15;;;20.42;;
16967;SDS011;64862;54.398;10.126;2022-11-25T05:25:44;35.10;;;19.38;;
16967;SDS011;64862;54.398;10.126;2022-11-25T05:28:28;37.67;;;20.20;;
16967;SDS011;64862;54.398;10.126;2022-11-25T05:30:56;38.88;;;19.80;;
16967;SDS011;64862;54.398;10.126;2022-11-25T05:33:24;36.47;;;19.48;;
16967;SDS011;64862;54.398;10.126;2022-11-25T05:35:55;39.83;;;20.52;;
16967;SDS011;64862;54.398;10.126;2022-11-25T05:38:29;39.00;;;20.23;;
16967;SDS011;64862;54.398;10.126;2022-11-25T05:40:59;40.85;;;20.23;;
16967;SDS011;64862;54.398;10.126;2022-11-25T05:43:28;33.30;;;19.52;;
16967;SDS011;64862;54.398;10.126;2022-11-25T05:45:56;32.83;;;18.75;;
16967;SDS011;64862;54.398;10.126;2022-11-25T05:48:24;39.35;;;19.75;;
16967;SDS011;64862;54.398;10.126;2022-11-25T05:50:51;36.70;;;19.98;;
16967;SDS011;64862;54.398;10.126;2022-11-25T05:53:22;36.75;;;18.80;;
16967;SDS011;64862;54.398;10.126;2022-11-25T05:55:57;39.03;;;20.08;;
16967;SDS011;64862;54.398;10.126;2022-11-25T05:58:45;36.72;;;20.17;;
16967;SDS011;64862;54.398;10.126;2022-11-25T06:01:13;34.42;;;19.50;;
16967;SDS011;64862;54.398;10.126;2022-11-25T06:03:43;41.47;;;19.65;;
16967;SDS011;64862;54.398;10.126;2022-11-25T06:06:11;39.30;;;20.70;;
16967;SDS011;64862;54.398;10.126;2022-11-25T06:08:39;38.42;;;19.42;;
16967;SDS011;64862;54.398;10.126;2022-11-25T06:11:10;39.63;;;19.90;;
16967;SDS011;64862;54.398;10.126;2022-11-25T06:13:39;43.38;;;20.77;;
16967;SDS011;64862;54.398;10.126;2022-11-25T06:16:08;39.53;;;20.60;;
16967;SDS011;64862;54.398;10.126;2022-11-25T06:18:37;42.65;;;19.52;;
16967;SDS011;64862;54.398;10.126;2022-11-25T06:21:07;33.15;;;18.00;;
16967;SDS011;64862;54.398;10.126;2022-11-25T06:23:36;35.75;;;18.60;;
16967;SDS011;64862;54.398;10.126;2022-11-25T06:26:09;37.90;;;19.20;;
16967;SDS011;64862;54.398;10.126;2022-11-25T06:28:39;36.42;;;19.30;;
16967;SDS011;64862;54.398;10.126;2022-11-25T06:31:06;36.03;;;19.40;;
16967;SDS011;64862;54.398;10.126;2022-11-25T06:33:45;34.92;;;19.17;;
16967;SDS011;64862;54.398;10.126;2022-11-25T06:36:14;37.28;;;18.83;;
16967;SDS011;64862;54.398;10.126;2022-11-25T06:38:42;33.13;;;18.77;;
16967;SDS011;64862;54.398;10.126;2022-11-25T06:41:12;33.58;;;17.75;;
16967;SDS011;64862;54.398;10.126;2022-11-25T06:43:40;36.55;;;18.33;;
16967;SDS011;64862;54.398;10.126;2022-11-25T06:46:08;32.13;;;16.85;;
16967;SDS011;64862;54.398;10.126;2022-11-25T06:48:36;38.85;;;18.00;;
16967;SDS011;64862;54.398;10.126;2022-11-25T06:51:05;36.20;;;17.55;;
16967;SDS011;64862;54.398;10.126;2022-11-25T06:53:33;34.05;;;17.42;;
16967;SDS011;64862;54.398;10.126;2022-11-25T06:56:04;39.15;;;16.38;;
16967;SDS011;64862;54.398;10.126;2022-11-25T06:58:35;33.60;;;16.88;;
16967;SDS011;64862;54.398;10.126;2022-11-25T07:01:04;32.22;;;17.17;;
16967;SDS011;64862;54.398;10.126;2022-11-25T07:03:32;34.83;;;17.10;;
16967;SDS011;64862;54.398;10.126;2022-11-25T07:06:00;29.75;;;15.38;;
16967;SDS011;64862;54.398;10.126;2022-11-25T07:08:28;30.17;;;15.57;;
16967;SDS011;64862;54.398;10.126;2022-11-25T07:11:00;31.20;;;16.63;;
16967;SDS011;64862;54.398;10.126;2022-11-25T07:13:28;34.75;;;16.17;;
16967;SDS011;64862;54.398;10.126;2022-11-25T07:16:00;27.35;;;14.77;;
16967;SDS011;64862;54.398;10.126;2022-11-25T07:18:29;28.45;;;14.55;;
16967;SDS011;64862;54.398;10.126;2022-11-25T07:21:00;28.42;;;14.15;;
16967;SDS011;64862;54.398;10.126;2022-11-25T07:23:29;29.13;;;14.25;;
16967;SDS011;64862;54.398;10.126;2022-11-25T07:26:00;27.35;;;14.48;;
16967;SDS011;64862;54.398;10.126;2022-11-25T07:28:28;26.23;;;13.93;;
16967;SDS011;64862;54.398;10.126;2022-11-25T07:30:55;26.40;;;13.88;;
16967;SDS011;64862;54.398;10.126;2022-11-25T07:33:32;27.08;;;13.68;;
16967;SDS011;64862;54.398;10.126;2022-11-25T07:36:01;22.45;;;13.07;;
16967;SDS011;64862;54.398;10.126;2022-11-25T07:38:30;22.67;;;12.15;;
16967;SDS011;64862;54.398;10.126;2022-11-25T07:41:02;26.20;;;12.50;;
16967;SDS011;64862;54.398;10.126;2022-11-25T07:43:30;23.52;;;12.63;;
16967;SDS011;64862;54.398;10.126;2022-11-25T07:46:08;24.08;;;12.35;;
16967;SDS011;64862;54.398;10.126;2022-11-25T07:48:38;19.73;;;11.75;;
16967;SDS011;64862;54.398;10.126;2022-11-25T07:51:12;17.70;;;10.65;;
16967;SDS011;64862;54.398;10.126;2022-11-25T07:53:40;22.47;;;11.43;;
16967;SDS011;64862;54.398;10.126;2022-11-25T07:56:08;21.70;;;11.77;;
16967;SDS011;64862;54.398;10.126;2022-11-25T07:58:35;20.15;;;11.23;;
16967;SDS011;64862;54.398;10.126;2022-11-25T08:01:03;22.35;;;10.60;;
16967;SDS011;64862;54.398;10.126;2022-11-25T08:03:33;21.45;;;10.23;;
16967;SDS011;64862;54.398;10.126;2022-11-25T08:06:03;19.13;;;10.32;;
16967;SDS011;64862;54.398;10.126;2022-11-25T08:08:32;18.70;;;10.27;;
16967;SDS011;64862;54.398;10.126;2022-11-25T08:11:00;15.30;;;9.45;;
16967;SDS011;64862;54.398;10.126;2022-11-25T08:13:33;18.25;;;9.15;;
16967;SDS011;64862;54.398;10.126;2022-11-25T08:16:00;20.23;;;9.45;;
16967;SDS011;64862;54.398;10.126;2022-11-25T08:18:28;17.35;;;9.82;;
16967;SDS011;64862;54.398;10.126;2022-11-25T08:21:00;14.75;;;8.75;;
16967;SDS011;64862;54.398;10.126;2022-11-25T08:23:30;16.75;;;9.60;;
16967;SDS011;64862;54.398;10.126;2022-11-25T08:26:02;16.48;;;8.68;;
16967;SDS011;64862;54.398;10.126;2022-11-25T08:28:30;16.00;;;8.88;;
16967;SDS011;64862;54.398;10.126;2022-11-25T08:31:00;15.55;;;9.35;;
16967;SDS011;64862;54.398;10.126;2022-11-25T08:33:29;16.38;;;8.93;;
16967;SDS011;64862;54.398;10.126;2022-11-25T08:35:57;18.05;;;8.85;;
16967;SDS011;64862;54.398;10.126;2022-11-25T08:38:28;16.05;;;8.77;;
16967;SDS011;64862;54.398;10.126;2022-11-25T08:40:55;17.65;;;8.95;;
16967;SDS011;64862;54.398;10.126;2022-11-25T08:43:24;16.63;;;8.40;;
16967;SDS011;64862;54.398;10.126;2022-11-25T08:45:53;19.40;;;9.80;;
16967;SDS011;64862;54.398;10.126;2022-11-25T08:48:21;18.05;;;9.57;;
16967;SDS011;64862;54.398;10.126;2022-11-25T08:50:49;16.65;;;8.98;;
16967;SDS011;64862;54.398;10.126;2022-11-25T08:53:18;15.10;;;8.85;;
16967;SDS011;64862;54.398;10.126;2022-11-25T08:55:48;17.52;;;8.82;;
16967;SDS011;64862;54.398;10.126;2022-11-25T08:58:15;16.27;;;8.57;;
16967;SDS011;64862;54.398;10.126;2022-11-25T09:00:43;18.02;;;8.65;;
16967;SDS011;64862;54.398;10.126;2022-11-25T09:03:11;18.63;;;8.77;;
16967;SDS011;64862;54.398;10.126;2022-11-25T09:05:39;16.30;;;8.52;;
16967;SDS011;64862;54.398;10.126;2022-11-25T09:08:08;15.13;;;8.25;;
16967;SDS011;64862;54.398;10.126;2022-11-25T09:10:36;15.68;;;8.25;;
16967;SDS011;64862;54.398;10.126;2022-11-25T09:13:07;21.48;;;8.48;;
16967;SDS011;64862;54.398;10.126;2022-11-25T09:15:35;17.65;;;8.50;;
16967;SDS011;64862;54.398;10.126;2022-11-25T09:18:04;16.27;;;8.35;;
16967;SDS011;64862;54.398;10.126;2022-11-25T09:20:33;15.65;;;8.02;;
16967;SDS011;64862;54.398;10.126;2022-11-25T09:23:02;18.60;;;8.80;;
16967;SDS011;64862;54.398;10.126;2022-11-25T09:25:30;20.30;;;9.15;;
16967;SDS011;64862;54.398;10.126;2022-11-25T09:27:57;19.40;;;8.68;;
16967;SDS011;64862;54.398;10.126;2022-11-25T09:30:26;21.80;;;8.52;;
16967;SDS011;64862;54.398;10.126;2022-11-25T09:32:53;18.10;;;8.38;;
16967;SDS011;64862;54.398;10.126;2022-11-25T09:35:21;17.15;;;9.25;;
16967;SDS011;64862;54.398;10.126;2022-11-25T09:37:49;17.50;;;9.05;;
16967;SDS011;64862;54.398;10.126;2022-11-25T09:40:18;22.13;;;9.65;;
16967;SDS011;64862;54.398;10.126;2022-11-25T09:42:48;15.77;;;8.60;;
16967;SDS011;64862;54.398;10.126;2022-11-25T09:45:40;16.95;;;9.25;;
16967;SDS011;64862;54.398;10.126;2022-11-25T09:48:33;19.70;;;9.48;;
16967;SDS011;64862;54.398;10.126;2022-11-25T09:51:21;19.48;;;9.02;;
16967;SDS011;64862;54.398;10.126;2022-11-25T09:53:54;17.33;;;9.30;;
16967;SDS011;64862;54.398;10.126;2022-11-25T09:56:28;22.27;;;9.18;;
16967;SDS011;64862;54.398;10.126;2022-11-25T09:59:02;17.83;;;9.38;;
16967;SDS011;64862;54.398;10.126;2022-11-25T10:01:41;17.50;;;8.98;;
16967;SDS011;64862;54.398;10.126;2022-11-25T10:04:14;17.02;;;8.73;;
16967;SDS011;64862;54.398;10.126;2022-11-25T10:06:47;18.40;;;9.05;;
16967;SDS011;64862;54.398;10.126;2022-11-25T10:09:19;17.25;;;8.57;;
16967;SDS011;64862;54.398;10.126;2022-11-25T10:11:50;16.17;;;8.98;;
16967;SDS011;64862;54.398;10.126;2022-11-25T10:14:25;17.70;;;8.98;;
16967;SDS011;64862;54.398;10.126;2022-11-25T10:17:00;19.30;;;9.15;;
16967;SDS011;64862;54.398;10.126;2022-11-25T10:19:35;21.15;;;8.40;;
16967;SDS011;64862;54.398;10.126;2022-11-25T10:22:12;18.20;;;8.80;;
16967;SDS011;64862;54.398;10.126;2022-11-25T10:24:48;22.05;;;9.65;;
16967;SDS011;64862;54.398;10.126;2022-11-25T10:27:17;19.08;;;9.20;;
16967;SDS011;64862;54.398;10.126;2022-11-25T10:29:51;18.42;;;9.07;;
16967;SDS011;64862;54.398;10.126;2022-11-25T10:32:28;22.05;;;9.10;;
16967;SDS011;64862;54.398;10.126;2022-11-25T10:35:04;20.13;;;9.75;;
16967;SDS011;64862;54.398;10.126;2022-11-25T10:37:41;21.98;;;9.88;;
16967;SDS011;64862;54.398;10.126;2022-11-25T10:40:12;21.20;;;9.30;;
16967;SDS011;64862;54.398;10.126;2022-11-25T10:42:41;21.75;;;9.85;;
16967;SDS011;64862;54.398;10.126;2022-11-25T10:45:08;21.75;;;10.43;;
16967;SDS011;64862;54.398;10.126;2022-11-25T10:47:43;21.60;;;9.90;;
16967;SDS011;64862;54.398;10.126;2022-11-25T10:50:22;21.07;;;10.27;;
16967;SDS011;64862;54.398;10.126;2022-11-25T10:52:54;22.95;;;10.35;;
16967;SDS011;64862;54.398;10.126;2022-11-25T10:55:25;23.05;;;10.88;;
16967;SDS011;64862;54.398;10.126;2022-11-25T10:57:54;28.30;;;11.68;;
16967;SDS011;64862;54.398;10.126;2022-11-25T11:00:26;23.13;;;11.63;;
16967;SDS011;64862;54.398;10.126;2022-11-25T11:02:57;25.55;;;12.02;;
16967;SDS011;64862;54.398;10.126;2022-11-25T11:05:42;27.67;;;11.90;;
16967;SDS011;64862;54.398;10.126;2022-11-25T11:08:17;31.73;;;13.30;;
16967;SDS011;64862;54.398;10.126;2022-11-25T11:13:41;29.73;;;12.52;;
16967;SDS011;64862;54.398;10.126;2022-11-25T11:19:01;29.60;;;12.48;;
16967;SDS011;64862;54.398;10.126;2022-11-25T11:21:30;30.33;;;12.55;;
16967;SDS011;64862;54.398;10.126;2022-11-25T11:23:59;28.05;;;12.75;;
16967;SDS011;64862;54.398;10.126;2022-11-25T11:26:28;30.48;;;12.85;;
16967;SDS011;64862;54.398;10.126;2022-11-25T11:28:58;26.58;;;12.43;;
16967;SDS011;64862;54.398;10.126;2022-11-25T11:31:35;32.03;;;12.30;;
16967;SDS011;64862;54.398;10.126;2022-11-25T11:34:09;27.80;;;12.32;;
16967;SDS011;64862;54.398;10.126;2022-11-25T11:37:01;25.27;;;11.93;;
16967;SDS011;64862;54.398;10.126;2022-11-25T11:39:51;26.02;;;12.20;;
16967;SDS011;64862;54.398;10.126;2022-11-25T13:48:16;30.17;;;16.45;;
16967;SDS011;64862;54.398;10.126;2022-11-25T13:50:46;25.30;;;16.73;;
16967;SDS011;64862;54.398;10.126;2022-11-25T13:53:17;30.73;;;16.98;;
16967;SDS011;64862;54.398;10.126;2022-11-25T13:55:49;31.95;;;16.80;;
16967;SDS011;64862;54.398;10.126;2022-11-25T14:00:59;31.17;;;17.35;;
16967;SDS011;64862;54.398;10.126;2022-11-25T14:03:43;31.65;;;17.90;;
16967;SDS011;64862;54.398;10.126;2022-11-25T14:06:21;31.08;;;17.08;;
16967;SDS011;64862;54.398;10.126;2022-11-25T14:09:04;35.28;;;18.65;;
16967;SDS011;64862;54.398;10.126;2022-11-25T14:11:39;32.33;;;17.67;;
16967;SDS011;64862;54.398;10.126;2022-11-25T14:14:38;34.53;;;18.70;;
16967;SDS011;64862;54.398;10.126;2022-11-25T14:17:25;32.70;;;18.70;;
16967;SDS011;64862;54.398;10.126;2022-11-25T14:20:10;36.08;;;19.23;;
16967;SDS011;64862;54.398;10.126;2022-11-25T14:22:55;39.30;;;19.35;;
16967;SDS011;64862;54.398;10.126;2022-11-25T14:25:41;42.97;;;20.48;;
16967;SDS011;64862;54.398;10.126;2022-11-25T14:28:17;34.47;;;19.95;;
16967;SDS011;64862;54.398;10.126;2022-11-25T14:30:51;36.97;;;20.02;;
16967;SDS011;64862;54.398;10.126;2022-11-25T14:33:24;36.33;;;20.00;;
16967;SDS011;64862;54.398;10.126;2022-11-25T14:35:59;38.20;;;19.15;;
16967;SDS011;64862;54.398;10.126;2022-11-25T14:38:34;36.47;;;19.92;;
16967;SDS011;64862;54.398;10.126;2022-11-25T14:41:06;39.22;;;20.17;;
16967;SDS011;64862;54.398;10.126;2022-11-25T14:43:37;39.97;;;20.58;;
16967;SDS011;64862;54.398;10.126;2022-11-25T14:46:08;37.90;;;20.88;;
16967;SDS011;64862;54.398;10.126;2022-11-25T14:48:38;54.83;;;28.17;;
16967;SDS011;64862;54.398;10.126;2022-11-25T14:51:07;59.53;;;28.58;;
16967;SDS011;64862;54.398;10.126;2022-11-25T14:53:39;45.05;;;22.67;;
16967;SDS011;64862;54.398;10.126;2022-11-25T14:56:08;59.45;;;28.60;;
16967;SDS011;64862;54.398;10.126;2022-11-25T14:58:38;44.95;;;22.55;;
16967;SDS011;64862;54.398;10.126;2022-11-25T15:01:08;38.53;;;22.73;;
16967;SDS011;64862;54.398;10.126;2022-11-25T15:03:44;47.75;;;22.58;;
16967;SDS011;64862;54.398;10.126;2022-11-25T15:06:13;44.03;;;22.77;;
16967;SDS011;64862;54.398;10.126;2022-11-25T15:08:44;46.65;;;23.20;;
16967;SDS011;64862;54.398;10.126;2022-11-25T15:11:20;43.88;;;24.27;;
16967;SDS011;64862;54.398;10.126;2022-11-25T15:13:51;45.17;;;23.25;;
16967;SDS011;64862;54.398;10.126;2022-11-25T15:16:21;49.10;;;23.33;;
16967;SDS011;64862;54.398;10.126;2022-11-25T15:18:51;45.92;;;23.77;;
16967;SDS011;64862;54.398;10.126;2022-11-25T15:21:23;51.13;;;24.23;;
16967;SDS011;64862;54.398;10.126;2022-11-25T15:23:55;46.05;;;25.42;;
16967;SDS011;64862;54.398;10.126;2022-11-25T15:26:22;53.65;;;25.08;;
16967;SDS011;64862;54.398;10.126;2022-11-25T15:28:52;60.33;;;26.40;;
16967;SDS011;64862;54.398;10.126;2022-11-25T15:31:28;52.72;;;24.77;;
16967;SDS011;64862;54.398;10.126;2022-11-25T15:33:58;53.50;;;27.05;;
16967;SDS011;64862;54.398;10.126;2022-11-25T15:36:28;56.92;;;27.42;;
16967;SDS011;64862;54.398;10.126;2022-11-25T15:39:08;56.45;;;26.40;;
16967;SDS011;64862;54.398;10.126;2022-11-25T15:41:40;58.83;;;27.95;;
16967;SDS011;64862;54.398;10.126;2022-11-25T15:44:15;52.72;;;25.73;;
16967;SDS011;64862;54.398;10.126;2022-11-25T15:46:49;52.20;;;25.23;;
16967;SDS011;64862;54.398;10.126;2022-11-25T15:49:21;59.47;;;27.67;;
16967;SDS011;64862;54.398;10.126;2022-11-25T15:51:51;61.97;;;27.98;;
16967;SDS011;64862;54.398;10.126;2022-11-25T15:54:22;54.40;;;27.63;;
16967;SDS011;64862;54.398;10.126;2022-11-25T15:56:54;59.10;;;28.40;;
16967;SDS011;64862;54.398;10.126;2022-11-25T15:59:36;71.40;;;27.75;;
16967;SDS011;64862;54.398;10.126;2022-11-25T16:05:07;67.90;;;29.17;;
16967;SDS011;64862;54.398;10.126;2022-11-25T16:07:53;60.95;;;27.10;;
16967;SDS011;64862;54.398;10.126;2022-11-25T16:10:26;56.33;;;27.63;;
16967;SDS011;64862;54.398;10.126;2022-11-25T16:13:14;71.63;;;28.60;;
16967;SDS011;64862;54.398;10.126;2022-11-25T16:15:55;79.50;;;29.65;;
16967;SDS011;64862;54.398;10.126;2022-11-25T16:18:28;65.95;;;28.92;;
16967;SDS011;64862;54.398;10.126;2022-11-25T16:20:58;77.65;;;29.48;;
16967;SDS011;64862;54.398;10.126;2022-11-25T16:23:29;64.13;;;28.48;;
16967;SDS011;64862;54.398;10.126;2022-11-25T16:26:01;80.32;;;32.30;;
16967;SDS011;64862;54.398;10.126;2022-11-25T16:28:30;75.07;;;32.75;;
16967;SDS011;64862;54.398;10.126;2022-11-25T16:30:58;74.18;;;32.10;;
16967;SDS011;64862;54.398;10.126;2022-11-25T16:33:26;75.70;;;29.67;;
16967;SDS011;64862;54.398;10.126;2022-11-25T16:35:53;76.22;;;31.25;;
16967;SDS011;64862;54.398;10.126;2022-11-25T16:38:20;64.80;;;30.17;;
16967;SDS011;64862;54.398;10.126;2022-11-25T16:40:49;78.07;;;30.20;;
16967;SDS011;64862;54.398;10.126;2022-11-25T16:43:18;78.05;;;30.10;;
16967;SDS011;64862;54.398;10.126;2022-11-25T16:45:49;63.80;;;28.27;;
16967;SDS011;64862;54.398;10.126;2022-11-25T16:48:18;80.00;;;30.30;;
16967;SDS011;64862;54.398;10.126;2022-11-25T16:50:46;65.28;;;29.67;;
16967;SDS011;64862;54.398;10.126;2022-11-25T16:53:14;64.30;;;28.92;;